Capitol Logistics 929

Operating for DHL



LXGB
Gibraltar Airport
Gibraltar, GI
EGNX
East Midlands Airport
Derby, GB

Route Details

Aircraft Information
Group: European Fleet
Types: A30F,A31F,B738
Route Data
Demand: M
Distance: 1017nm
Duration: 2h 39m
Recm'd Route: MAR UN871 VTB UN867 BLV UL14 TEPRA UN867 TERPO UP87 GODAN UN862 UPALO UP87 ROXOG L982 VASUX UN867 AVANT UM184 HEMEL T420 BUZAD L10 DTY DTY1E
Origin Wx: LXGB 242150Z AUTO 24011KT 9999 BKN220/// 20/13 Q1014
Dest. Wx: EGNX 242150Z 25011KT CAVOK 11/06 Q1009
Notes:

Financial History
Total Freight: 132,818lbs
Average Load: 33,205lbs/flt
Fuel Used: 112,865lbs
Avg. Fuel Used: 28,216lbs/flt
Fuel Expense: $36,051
Avg. Fuel Expense: $9,013
Avg. Fuel Cost: $0.31/lbs
Total Gross Income: $274,136
Pilot Pay: $926
Total Expenses: $37,734
Total Revenue: $198,018
Average Revenue: $68,534.09